createdAt,value
2018-12-13T00:01:33.867Z,2.65
2018-12-13T00:04:06.908Z,2.44
2018-12-13T00:06:40.170Z,2.41
2018-12-13T00:09:11.236Z,2.39
2018-12-13T00:11:42.454Z,2.45
2018-12-13T00:14:13.271Z,2.42
2018-12-13T00:16:43.941Z,2.41
2018-12-13T00:19:14.542Z,2.61
2018-12-13T00:21:45.674Z,2.68
2018-12-13T00:24:19.693Z,2.73
2018-12-13T00:26:53.105Z,2.68
2018-12-13T00:29:25.419Z,2.37
2018-12-13T00:32:00.211Z,2.54
2018-12-13T00:34:33.869Z,2.55
2018-12-13T00:37:05.126Z,2.30
2018-12-13T00:39:35.914Z,2.42
2018-12-13T00:42:06.927Z,2.30
2018-12-13T00:44:42.998Z,2.22
2018-12-13T00:47:16.380Z,2.37
2018-12-13T00:49:48.691Z,2.50
2018-12-13T00:52:20.439Z,2.57
2018-12-13T00:54:51.240Z,2.51
2018-12-13T00:57:24.074Z,2.71
2018-12-13T00:59:55.488Z,2.71
2018-12-13T01:02:26.012Z,2.91
2018-12-13T01:04:56.783Z,2.80
2018-12-13T01:07:27.781Z,2.40
2018-12-13T01:09:58.346Z,2.66
2018-12-13T01:12:31.443Z,2.85
2018-12-13T01:15:02.359Z,2.93
2018-12-13T01:17:33.393Z,2.97
2018-12-13T01:20:07.390Z,3.15
2018-12-13T01:22:40.631Z,2.79
2018-12-13T01:25:11.464Z,2.71
2018-12-13T01:27:42.572Z,2.88
2018-12-13T01:33:07.346Z,2.79
2018-12-13T01:38:24.238Z,3.65
2018-12-13T01:40:59.175Z,3.59
2018-12-13T01:43:31.272Z,3.03
2018-12-13T01:46:02.600Z,2.89
2018-12-13T01:48:35.877Z,3.28
2018-12-13T01:51:09.700Z,3.31
2018-12-13T01:53:40.265Z,2.99
2018-12-13T01:56:11.255Z,3.41
2018-12-13T01:58:44.917Z,3.68
2018-12-13T02:01:17.464Z,3.57
2018-12-13T02:03:48.518Z,3.54
2018-12-13T02:06:21.494Z,3.63
2018-12-13T02:08:57.471Z,3.13
2018-12-13T02:11:29.219Z,2.73
2018-12-13T02:14:00.180Z,2.48
2018-12-13T02:16:31.142Z,3.17
2018-12-13T02:19:03.695Z,3.80
2018-12-13T02:21:34.774Z,4.00
2018-12-13T02:24:06.574Z,4.62
2018-12-13T02:26:38.507Z,5.11
2018-12-13T02:29:09.470Z,5.23
2018-12-13T02:31:41.157Z,5.21
2018-12-13T02:34:14.013Z,5.34
2018-12-13T02:36:45.195Z,5.66
2018-12-13T02:39:20.339Z,5.67
2018-12-13T02:41:52.631Z,5.06
2018-12-13T02:44:23.577Z,5.21
2018-12-13T02:46:54.267Z,5.39
2018-12-13T02:49:24.934Z,4.85
2018-12-13T02:51:55.482Z,5.09
2018-12-13T02:54:26.328Z,4.25
2018-12-13T02:57:05.595Z,3.90
2018-12-13T02:59:39.036Z,3.68
2018-12-13T03:02:09.687Z,3.50
2018-12-13T03:04:43.158Z,3.52
2018-12-13T03:07:14.433Z,4.26
2018-12-13T03:09:45.588Z,4.07
2018-12-13T03:12:19.073Z,5.05
2018-12-13T03:14:51.808Z,4.89
2018-12-13T03:17:25.962Z,3.98
2018-12-13T03:19:58.056Z,3.00
2018-12-13T03:22:29.935Z,2.55
2018-12-13T03:25:02.658Z,2.42
2018-12-13T03:27:33.763Z,2.09
2018-12-13T03:30:05.133Z,1.95
2018-12-13T03:32:38.049Z,1.72
2018-12-13T03:35:10.875Z,2.07
2018-12-13T03:37:42.220Z,3.07
2018-12-13T03:40:12.851Z,2.68
2018-12-13T03:42:46.677Z,2.25
2018-12-13T03:45:19.962Z,1.37
2018-12-13T03:47:54.139Z,2.17
2018-12-13T03:50:41.468Z,2.02
2018-12-13T03:53:14.246Z,1.96
2018-12-13T03:55:44.781Z,1.90
2018-12-13T03:58:20.931Z,2.33
2018-12-13T04:00:57.560Z,2.87
2018-12-13T04:03:29.460Z,3.14
2018-12-13T04:06:11.361Z,3.46
2018-12-13T04:08:44.929Z,4.09
2018-12-13T04:11:17.750Z,4.40
2018-12-13T04:13:52.058Z,4.95
2018-12-13T04:16:23.116Z,5.24
2018-12-13T04:18:56.094Z,5.22
2018-12-13T04:21:27.256Z,5.28
2018-12-13T04:24:00.231Z,5.66
2018-12-13T04:26:31.394Z,5.16
2018-12-13T04:29:02.162Z,4.84
2018-12-13T04:31:35.198Z,5.29
2018-12-13T04:34:06.215Z,5.54
2018-12-13T04:36:36.543Z,5.21
2018-12-13T04:39:08.661Z,5.18
2018-12-13T04:47:55.023Z,5.21
2018-12-13T04:50:40.107Z,5.42
2018-12-13T04:53:12.117Z,5.21
2018-12-13T04:56:02.926Z,4.38
2018-12-13T04:58:34.495Z,4.21
2018-12-13T05:01:06.028Z,3.53
2018-12-13T05:03:38.911Z,4.35
2018-12-13T05:06:10.249Z,4.78
2018-12-13T05:08:43.547Z,4.67
2018-12-13T05:11:14.652Z,4.01
2018-12-13T05:13:45.658Z,2.78
2018-12-13T05:16:18.514Z,2.44
2018-12-13T05:18:49.523Z,2.89
2018-12-13T05:21:22.445Z,2.62
2018-12-13T05:23:53.435Z,2.00
2018-12-13T05:26:26.540Z,2.20
2018-12-13T05:28:58.805Z,2.82
2018-12-13T05:31:31.324Z,3.07
2018-12-13T05:34:02.364Z,3.07
2018-12-13T05:36:33.738Z,2.93
2018-12-13T05:39:08.038Z,2.86
2018-12-13T05:41:40.949Z,2.01
2018-12-13T05:44:13.695Z,2.67
2018-12-13T05:46:45.904Z,2.64
2018-12-13T05:49:17.044Z,3.47
2018-12-13T05:51:48.823Z,3.72
2018-12-13T05:54:20.755Z,4.11
2018-12-13T05:56:52.005Z,4.36
2018-12-13T05:59:22.711Z,4.64
2018-12-13T06:01:56.454Z,4.18
2018-12-13T06:04:29.764Z,3.89
2018-12-13T06:07:01.369Z,4.21
2018-12-13T06:09:33.721Z,4.77
2018-12-13T06:12:04.542Z,5.18
2018-12-13T06:14:35.552Z,5.32
2018-12-13T06:17:08.996Z,5.60
2018-12-13T06:19:45.251Z,5.28
2018-12-13T06:22:22.035Z,5.00
2018-12-13T06:24:54.460Z,5.27
2018-12-13T06:27:26.581Z,5.52
2018-12-13T06:29:59.947Z,5.58
2018-12-13T06:32:30.742Z,5.86
2018-12-13T06:35:02.749Z,5.87
2018-12-13T06:37:35.155Z,5.20
2018-12-13T06:40:06.493Z,4.55
2018-12-13T06:42:37.811Z,4.78
2018-12-13T06:45:12.348Z,4.59
2018-12-13T06:48:08.967Z,5.02
2018-12-13T06:50:59.337Z,5.25
2018-12-13T06:53:30.681Z,5.42
2018-12-13T06:56:01.637Z,5.38
2018-12-13T06:58:32.547Z,5.37
2018-12-13T07:01:03.107Z,4.96
2018-12-13T07:03:33.825Z,4.77
2018-12-13T07:06:05.195Z,3.94
2018-12-13T07:08:36.059Z,4.35
2018-12-13T07:11:07.672Z,4.30
2018-12-13T07:13:39.985Z,3.83
2018-12-13T07:16:12.300Z,3.44
2018-12-13T07:18:48.831Z,3.86
2018-12-13T07:21:21.752Z,4.15
2018-12-13T07:23:54.480Z,3.63
2018-12-13T07:26:25.965Z,3.53
2018-12-13T07:28:58.737Z,4.15
2018-12-13T07:31:32.064Z,3.85
2018-12-13T07:34:03.126Z,3.91
2018-12-13T07:36:36.963Z,3.36
2018-12-13T07:39:10.494Z,3.10
2018-12-13T07:41:41.066Z,3.26
2018-12-13T07:44:14.524Z,3.38
2018-12-13T07:46:45.161Z,3.26
2018-12-13T07:49:16.129Z,3.50
2018-12-13T07:51:47.032Z,4.05
2018-12-13T07:54:17.647Z,3.54
2018-12-13T07:56:50.818Z,3.42
2018-12-13T07:59:24.908Z,3.53
2018-12-13T08:01:58.093Z,4.07
2018-12-13T08:04:29.208Z,3.89
2018-12-13T08:07:02.591Z,3.62
2018-12-13T08:09:34.388Z,3.32
2018-12-13T08:12:05.234Z,3.40
2018-12-13T08:14:37.938Z,2.98
2018-12-13T08:17:09.675Z,2.92
2018-12-13T08:19:40.522Z,3.01
2018-12-13T08:22:13.024Z,2.67
2018-12-13T08:24:44.494Z,2.84
2018-12-13T08:27:15.014Z,3.08
2018-12-13T08:29:46.079Z,3.06
2018-12-13T08:32:19.183Z,2.96
2018-12-13T08:34:51.216Z,2.64
2018-12-13T08:37:23.019Z,2.59
2018-12-13T08:39:54.118Z,2.97
2018-12-13T08:42:26.188Z,2.92
2018-12-13T08:44:58.407Z,3.11
2018-12-13T08:47:29.606Z,3.47
2018-12-13T08:50:03.558Z,3.29
2018-12-13T08:52:36.516Z,2.79
2018-12-13T08:55:08.255Z,2.61
2018-12-13T08:57:41.421Z,2.55
2018-12-13T09:00:12.732Z,2.71
2018-12-13T09:02:57.189Z,2.98
2018-12-13T09:05:34.958Z,3.15
2018-12-13T09:08:09.099Z,3.12
2018-12-13T09:10:56.915Z,2.85
2018-12-13T09:13:28.415Z,2.75
2018-12-13T09:16:08.203Z,2.78
2018-12-13T09:18:40.672Z,2.17
2018-12-13T09:21:12.454Z,2.84
2018-12-13T09:23:44.328Z,3.11
2018-12-13T09:26:17.218Z,2.63
2018-12-13T09:28:49.998Z,2.45
2018-12-13T09:31:24.908Z,2.80
2018-12-13T09:34:01.661Z,1.99
2018-12-13T09:36:35.140Z,1.86
2018-12-13T09:39:11.214Z,2.67
2018-12-13T09:41:46.080Z,3.50
2018-12-13T09:44:23.179Z,3.43
2018-12-13T09:46:56.488Z,3.36
2018-12-13T09:49:29.069Z,3.32
2018-12-13T09:52:01.422Z,3.50
2018-12-13T09:54:34.886Z,2.96
2018-12-13T09:57:05.771Z,3.23
2018-12-13T09:59:36.963Z,2.97
2018-12-13T10:02:10.668Z,2.72
2018-12-13T10:04:43.774Z,2.85
2018-12-13T10:07:14.824Z,3.21
2018-12-13T10:09:45.801Z,2.85
2018-12-13T10:12:18.978Z,2.83
2018-12-13T10:14:51.662Z,2.52
2018-12-13T10:17:22.720Z,2.30
2018-12-13T10:19:55.629Z,2.42
2018-12-13T10:22:28.654Z,2.78
2018-12-13T10:25:01.532Z,2.58
2018-12-13T10:27:35.205Z,2.42
2018-12-13T10:30:09.207Z,2.43
2018-12-13T10:32:42.165Z,2.57
2018-12-13T10:35:13.403Z,2.48
2018-12-13T10:38:03.626Z,2.29
2018-12-13T10:40:43.414Z,2.28
2018-12-13T10:43:22.615Z,2.36
2018-12-13T10:45:53.863Z,2.78
2018-12-13T10:48:24.679Z,2.94
2018-12-13T10:50:58.812Z,3.25
2018-12-13T10:53:31.987Z,3.46
2018-12-13T10:56:05.168Z,3.72
2018-12-13T10:58:36.009Z,3.89
2018-12-13T11:01:11.778Z,3.72
2018-12-13T11:03:43.958Z,4.06
2018-12-13T11:06:16.802Z,3.25
2018-12-13T11:08:49.153Z,2.48
2018-12-13T11:11:21.893Z,3.27
2018-12-13T11:13:54.802Z,3.98
2018-12-13T11:16:26.145Z,4.20
2018-12-13T11:18:57.227Z,4.51
2018-12-13T11:21:28.112Z,3.89
2018-12-13T11:24:01.796Z,3.12
2018-12-13T11:26:41.502Z,3.41
2018-12-13T11:29:28.312Z,2.84
2018-12-13T11:32:00.643Z,2.96
2018-12-13T11:34:31.598Z,3.30
2018-12-13T11:37:02.861Z,3.20
2018-12-13T11:39:36.277Z,3.39
2018-12-13T11:42:09.390Z,3.49
2018-12-13T11:44:40.835Z,3.50
2018-12-13T11:47:19.812Z,3.28
2018-12-13T11:49:52.899Z,3.04
2018-12-13T11:52:24.044Z,3.06
2018-12-13T11:54:59.166Z,2.91
2018-12-13T11:57:31.411Z,3.18
2018-12-13T12:00:02.161Z,2.92
2018-12-13T12:02:35.308Z,2.79
2018-12-13T12:05:06.512Z,2.60
2018-12-13T12:07:39.088Z,2.75
2018-12-13T12:10:10.441Z,3.10
2018-12-13T12:12:41.627Z,2.84
2018-12-13T12:15:15.420Z,2.79
2018-12-13T12:18:02.976Z,2.74
2018-12-13T12:20:37.960Z,3.26
2018-12-13T12:23:28.547Z,2.86
2018-12-13T12:26:02.913Z,2.64
2018-12-13T12:28:37.391Z,2.58
2018-12-13T12:31:10.069Z,3.01
2018-12-13T12:33:42.403Z,3.55
2018-12-13T12:36:15.799Z,3.70
2018-12-13T12:38:46.598Z,3.53
2018-12-13T12:41:17.111Z,3.66
2018-12-13T12:43:49.348Z,3.65
2018-12-13T12:46:24.630Z,3.59
2018-12-13T12:48:58.332Z,3.64
2018-12-13T12:51:32.448Z,3.93
2018-12-13T12:54:05.448Z,3.61
2018-12-13T12:56:38.307Z,4.10
2018-12-13T12:59:09.255Z,4.11
2018-12-13T13:01:39.917Z,4.21
2018-12-13T13:04:10.462Z,3.62
2018-12-13T13:06:41.093Z,3.75
2018-12-13T13:09:11.882Z,3.59
2018-12-13T13:11:43.067Z,2.88
2018-12-13T13:14:22.364Z,2.72
2018-12-13T13:16:55.507Z,2.39
2018-12-13T13:19:27.645Z,2.10
2018-12-13T13:21:58.714Z,2.14
2018-12-13T13:24:31.136Z,2.01
2018-12-13T13:27:02.047Z,2.00
2018-12-13T13:29:32.656Z,2.14
2018-12-13T13:32:03.818Z,2.18
2018-12-13T13:34:34.383Z,2.39
2018-12-13T13:37:08.651Z,2.82
2018-12-13T13:39:44.302Z,2.94
2018-12-13T13:42:15.651Z,3.25
2018-12-13T13:44:46.931Z,3.13
2018-12-13T13:47:19.427Z,2.60
2018-12-13T13:49:52.591Z,2.08
2018-12-13T13:52:24.351Z,1.90
2018-12-13T13:54:55.014Z,1.88
2018-12-13T13:57:25.852Z,1.90
2018-12-13T13:59:56.694Z,2.17
2018-12-13T14:02:27.267Z,1.91
2018-12-13T14:04:58.084Z,1.99
2018-12-13T14:07:32.066Z,2.08
2018-12-13T14:10:05.517Z,2.21
2018-12-13T14:12:38.878Z,2.85
2018-12-13T14:15:11.882Z,2.88
2018-12-13T14:17:42.981Z,2.78
2018-12-13T14:20:13.613Z,2.91
2018-12-13T14:22:45.730Z,2.41
2018-12-13T14:25:31.942Z,1.99
2018-12-13T14:28:04.595Z,1.92
2018-12-13T14:30:49.836Z,1.93
2018-12-13T14:33:21.544Z,1.70
2018-12-13T14:35:54.763Z,1.70
2018-12-13T14:38:30.570Z,1.63
2018-12-13T14:41:01.829Z,1.38
2018-12-13T14:43:33.092Z,1.48
2018-12-13T14:46:04.106Z,1.59
2018-12-13T14:48:35.118Z,1.43
2018-12-13T14:51:21.626Z,1.59
2018-12-13T14:53:54.910Z,1.85
2018-12-13T14:56:26.860Z,1.97
2018-12-13T14:58:59.217Z,1.87
2018-12-13T15:01:38.070Z,2.17
2018-12-13T15:04:10.534Z,2.16
2018-12-13T15:06:44.870Z,1.82
2018-12-13T15:09:15.919Z,1.79
2018-12-13T15:11:46.417Z,1.71
2018-12-13T15:14:17.254Z,1.95
2018-12-13T15:16:47.962Z,1.98
2018-12-13T15:19:18.910Z,1.82
2018-12-13T15:21:49.732Z,2.31
2018-12-13T15:24:20.704Z,2.14
2018-12-13T15:26:58.056Z,2.06
2018-12-13T15:29:32.192Z,2.05
2018-12-13T15:32:04.302Z,1.90
2018-12-13T15:34:38.838Z,2.16
2018-12-13T15:37:09.563Z,2.10
2018-12-13T15:39:40.403Z,2.19
2018-12-13T15:42:11.301Z,2.03
2018-12-13T15:44:44.109Z,1.47
2018-12-13T15:47:16.327Z,1.44
2018-12-13T15:49:50.122Z,1.54
2018-12-13T15:52:21.099Z,1.32
2018-12-13T15:54:52.799Z,1.33
2018-12-13T15:57:25.283Z,1.63
2018-12-13T15:59:58.788Z,1.98
2018-12-13T16:02:31.422Z,2.04
2018-12-13T16:05:02.598Z,1.75
2018-12-13T16:07:35.065Z,1.92
2018-12-13T16:10:07.848Z,2.35
2018-12-13T16:12:40.439Z,2.48
2018-12-13T16:15:13.362Z,2.68
2018-12-13T16:17:44.444Z,2.70
2018-12-13T16:20:15.631Z,2.34
2018-12-13T16:22:46.490Z,2.40
2018-12-13T16:25:46.852Z,2.46
2018-12-13T16:28:19.425Z,2.30
2018-12-13T16:30:55.112Z,2.77
2018-12-13T16:33:31.363Z,2.66
2018-12-13T16:36:08.290Z,2.32
2018-12-13T16:38:40.787Z,2.23
2018-12-13T16:41:16.518Z,2.81
2018-12-13T16:43:49.273Z,2.71
2018-12-13T16:46:21.371Z,2.74
2018-12-13T16:48:52.765Z,2.56
2018-12-13T16:51:28.469Z,2.35
2018-12-13T16:54:00.137Z,2.33
2018-12-13T16:56:30.793Z,2.85
2018-12-13T16:59:01.582Z,2.73
2018-12-13T17:01:34.520Z,2.42
2018-12-13T17:04:06.779Z,2.26
2018-12-13T17:06:38.427Z,2.26
2018-12-13T17:09:11.587Z,2.19
2018-12-13T17:11:43.624Z,2.06
2018-12-13T17:14:16.916Z,2.31
2018-12-13T17:16:50.223Z,2.42
2018-12-13T17:19:23.836Z,2.42
2018-12-13T17:21:56.494Z,1.95
2018-12-13T17:24:31.162Z,1.67
2018-12-13T17:27:03.593Z,1.72
2018-12-13T17:29:34.897Z,1.93
2018-12-13T17:32:08.100Z,1.88
2018-12-13T17:34:38.687Z,1.71
2018-12-13T17:37:09.321Z,1.74
2018-12-13T17:39:39.928Z,1.80
2018-12-13T17:42:10.557Z,1.88
2018-12-13T17:44:41.435Z,1.95
2018-12-13T17:47:12.458Z,2.10
2018-12-13T17:49:43.073Z,2.12
2018-12-13T17:52:13.935Z,2.22
2018-12-13T17:54:44.761Z,2.02
2018-12-13T17:57:18.072Z,2.13
2018-12-13T17:59:53.378Z,2.43
2018-12-13T18:02:28.642Z,2.02
2018-12-13T18:05:01.938Z,2.16
2018-12-13T18:07:32.634Z,1.97
2018-12-13T18:10:04.533Z,1.77
2018-12-13T18:12:37.602Z,1.72
2018-12-13T18:15:10.167Z,1.48
2018-12-13T18:17:54.288Z,1.53
2018-12-13T18:20:49.884Z,1.83
2018-12-13T18:23:21.578Z,2.30
2018-12-13T18:25:52.123Z,1.91
2018-12-13T18:28:24.046Z,1.70
2018-12-13T18:30:57.698Z,1.53
2018-12-13T18:33:31.129Z,1.59
2018-12-13T18:36:03.936Z,1.75
2018-12-13T18:38:40.567Z,1.66
2018-12-13T18:41:11.439Z,1.64
2018-12-13T18:43:46.135Z,1.47
2018-12-13T18:46:18.526Z,1.43
2018-12-13T18:48:53.647Z,1.47
2018-12-13T18:51:25.967Z,1.48
2018-12-13T18:53:59.446Z,1.56
2018-12-13T18:56:30.271Z,1.39
2018-12-13T18:59:01.204Z,1.58
2018-12-13T19:01:32.033Z,1.42
2018-12-13T19:04:02.899Z,1.56
2018-12-13T19:06:33.541Z,1.84
2018-12-13T19:09:05.726Z,1.88
2018-12-13T19:11:46.038Z,1.99
2018-12-13T19:14:18.392Z,2.25
2018-12-13T19:16:54.150Z,2.23
2018-12-13T19:19:28.738Z,2.24
2018-12-13T19:22:07.890Z,2.03
2018-12-13T19:24:39.311Z,2.05
2018-12-13T19:27:13.341Z,2.29
2018-12-13T19:29:46.483Z,2.37
2018-12-13T19:32:20.344Z,2.40
2018-12-13T19:35:00.162Z,2.37
2018-12-13T19:38:00.048Z,2.64
2018-12-13T19:40:48.190Z,2.68
2018-12-13T19:43:15.423Z,2.72
2018-12-13T19:45:54.768Z,2.37
2018-12-13T19:48:29.595Z,2.35
2018-12-13T19:51:04.629Z,2.10
2018-12-13T19:53:39.391Z,2.45
2018-12-13T19:56:14.173Z,2.94
2018-12-13T19:58:46.456Z,2.57
2018-12-13T20:01:18.395Z,2.98
2018-12-13T20:03:52.348Z,2.59
2018-12-13T20:06:25.490Z,1.97
2018-12-13T20:08:59.270Z,1.82
2018-12-13T20:11:32.831Z,2.26
2018-12-13T20:14:12.166Z,2.56
2018-12-13T20:16:45.498Z,2.28
2018-12-13T20:19:17.674Z,2.10
2018-12-13T20:21:50.206Z,1.83
2018-12-13T20:24:22.571Z,1.92
2018-12-13T20:26:59.036Z,1.67
2018-12-13T20:29:34.623Z,1.61
2018-12-13T20:32:07.300Z,1.62
2018-12-13T20:34:41.113Z,1.58
2018-12-13T20:37:12.666Z,1.53
2018-12-13T20:39:43.441Z,1.50
2018-12-13T20:42:14.159Z,1.39
2018-12-13T20:44:46.475Z,1.98
2018-12-13T20:47:17.556Z,1.73
2018-12-13T20:49:50.302Z,1.51
2018-12-13T20:52:25.154Z,1.45
2018-12-13T20:54:56.822Z,1.15
2018-12-13T20:57:33.618Z,1.42
2018-12-13T21:00:11.082Z,1.29
2018-12-13T21:03:07.208Z,1.15
2018-12-13T21:05:51.735Z,0.95
2018-12-13T21:08:23.835Z,0.95
2018-12-13T21:10:55.097Z,0.93
2018-12-13T21:13:37.206Z,1.02
2018-12-13T21:16:08.187Z,0.86
2018-12-13T21:18:39.466Z,0.92
2018-12-13T21:21:12.517Z,0.88
2018-12-13T21:23:44.775Z,0.71
2018-12-13T21:26:17.803Z,0.79
2018-12-13T21:28:53.410Z,0.77
2018-12-13T21:31:27.374Z,0.87
2018-12-13T21:33:57.987Z,0.94
2018-12-13T21:36:34.716Z,0.79
2018-12-13T21:39:08.071Z,0.54
2018-12-13T21:41:41.882Z,0.66
2018-12-13T21:44:14.843Z,0.58
2018-12-13T21:46:45.387Z,0.46
2018-12-13T21:49:15.918Z,0.49
2018-12-13T21:51:47.384Z,0.45
2018-12-13T21:54:20.364Z,0.57
2018-12-13T21:56:58.477Z,0.48
2018-12-13T21:59:34.169Z,0.61
2018-12-13T22:02:05.479Z,0.73
2018-12-13T22:04:39.040Z,0.57
2018-12-13T22:07:11.659Z,0.53
2018-12-13T22:09:43.459Z,0.66
2018-12-13T22:12:15.891Z,0.90
2018-12-13T22:14:46.813Z,0.75
2018-12-13T22:17:19.421Z,0.69
2018-12-13T22:19:57.627Z,0.47
2018-12-13T22:22:31.540Z,0.51
2018-12-13T22:25:07.437Z,0.46
2018-12-13T22:27:40.936Z,0.49
2018-12-13T22:30:11.978Z,0.53
2018-12-13T22:32:43.188Z,0.47
2018-12-13T22:35:29.678Z,0.51
2018-12-13T22:38:02.862Z,0.68
2018-12-13T22:40:58.630Z,0.59
2018-12-13T22:43:29.855Z,0.57
2018-12-13T22:46:08.451Z,0.64
2018-12-13T22:48:42.815Z,0.86
2018-12-13T22:51:14.860Z,1.07
2018-12-13T22:53:46.748Z,1.16
2018-12-13T22:56:18.249Z,0.91
2018-12-13T22:58:51.896Z,1.20
2018-12-13T23:01:25.608Z,0.79
2018-12-13T23:04:04.886Z,0.68
2018-12-13T23:06:38.277Z,0.76
2018-12-13T23:09:09.365Z,0.64
2018-12-13T23:11:41.918Z,0.60
2018-12-13T23:14:16.140Z,0.63
2018-12-13T23:16:46.939Z,0.53
2018-12-13T23:19:20.339Z,0.40
2018-12-13T23:21:54.053Z,0.34
2018-12-13T23:24:26.763Z,0.61
2018-12-13T23:26:58.358Z,0.81
2018-12-13T23:29:32.704Z,0.71
2018-12-13T23:32:05.238Z,0.48
2018-12-13T23:34:38.736Z,0.39
2018-12-13T23:37:15.644Z,0.33
2018-12-13T23:39:46.191Z,0.24
2018-12-13T23:42:17.762Z,0.44
2018-12-13T23:44:48.325Z,0.54
2018-12-13T23:47:25.765Z,0.59
2018-12-13T23:49:58.563Z,0.62
2018-12-13T23:52:31.124Z,0.53
2018-12-13T23:55:05.173Z,0.45
2018-12-13T23:57:38.135Z,0.51
